Time;durP1;ratioP1;P1;durP2;ratioP2;P2;SDS_P1;SDS_P2;PMS_P1;PMS_P2;Temp;Humidity;BMP_temperature;BMP_pressure;BME280_temperature;BME280_humidity;BME280_pressure;Samples;Min_cycle;Max_cycle;Signal;HPM_P1;HPM_P2
2023/06/12 00:02:08;;;;;;;;;;;;;;;20.66;55.70;101481.25;4972148;28;20390;-73
2023/06/12 00:04:33;;;;;;;;;;;;;;;20.64;53.99;101480.56;4965812;28;19925;-73
2023/06/12 00:06:59;;;;;;;;;;;;;;;20.52;54.24;101488.25;4974013;28;20771;-73
2023/06/12 00:09:24;;;;;;;;;;;;;;;20.48;55.76;101481.44;4959664;28;19929;-73
2023/06/12 00:11:49;;;;;;;;;;;;;;;20.40;55.87;101481.41;4966193;28;19972;-73
2023/06/12 00:14:14;;;;;;;;;;;;;;;20.41;56.01;101487.72;4969319;28;19972;-73
2023/06/12 00:16:39;;;;;;;;;;;;;;;20.40;56.64;101483.28;4971202;28;19949;-72
2023/06/12 00:19:05;;;;;;;;;;;;;;;20.29;57.53;101487.22;4968733;28;20028;-73
2023/06/12 00:21:30;;;;;;;;;;;;;;;20.23;56.56;101483.28;4982246;28;19925;-73
2023/06/12 00:23:55;;;;;;;;;;;;;;;20.18;57.94;101485.66;4972799;28;19941;-73
2023/06/12 00:26:20;;;;;;;;;;;;;;;20.06;59.09;101485.13;4970869;28;21344;-73
2023/06/12 00:28:46;;;;;;;;;;;;;;;19.95;59.13;101491.75;4968672;28;20163;-73
2023/06/12 00:31:11;;;;;;;;;;;;;;;19.87;59.54;101491.66;4967714;28;19956;-73
2023/06/12 00:33:36;;;;;;;;;;;;;;;19.83;59.12;101490.28;4970561;28;20028;-73
2023/06/12 00:36:02;;;;;;;;;;;;;;;19.81;59.25;101487.75;4975960;28;19922;-73
2023/06/12 00:38:27;;;;;;;;;;;;;;;19.87;58.67;101486.22;4970629;28;20344;-73
2023/06/12 00:40:52;;;;;;;;;;;;;;;19.86;58.64;101487.25;4968023;28;19960;-73
2023/06/12 00:43:17;;;;;;;;;;;;;;;19.78;59.45;101488.06;4970535;28;19922;-73
2023/06/12 00:45:43;;;;;;;;;;;;;;;19.71;59.72;101482.44;4971994;28;19922;-73
2023/06/12 00:48:08;;;;;;;;;;;;;;;19.64;59.78;101479.50;4975623;28;20276;-73
2023/06/12 00:50:34;;;;;;;;;;;;;;;19.66;60.19;101476.63;4965229;28;20388;-73
2023/06/12 00:53:00;;;;;;;;;;;;;;;19.60;59.16;101485.44;4969438;28;19926;-73
2023/06/12 00:55:25;;;;;;;;;;;;;;;19.61;59.44;101489.88;4972079;28;19981;-73
2023/06/12 00:57:51;;;;;;;;;;;;;;;19.58;58.53;101480.16;4969778;28;20032;-73
2023/06/12 01:00:17;;;;;;;;;;;;;;;19.55;60.31;101479.63;4973438;28;20044;-73
2023/06/12 01:02:44;;;;;;;;;;;;;;;19.53;59.66;101481.66;4972485;28;19932;-73
2023/06/12 01:05:10;;;;;;;;;;;;;;;19.44;60.63;101483.50;4966541;28;19918;-73
2023/06/12 01:07:53;;;;;;;;;;;;;;;19.35;60.78;101477.16;4972840;28;19965;-73
2023/06/12 01:10:30;;;;;;;;;;;;;;;19.33;61.53;101476.47;4960636;28;20013;-73
2023/06/12 01:12:56;;;;;;;;;;;;;;;19.29;61.42;101475.94;4973043;28;19921;-73
2023/06/12 01:15:21;;;;;;;;;;;;;;;19.26;62.35;101480.84;4972305;28;19917;-73
2023/06/12 01:17:46;;;;;;;;;;;;;;;19.21;62.87;101473.16;4975225;28;20250;-73
2023/06/12 01:20:12;;;;;;;;;;;;;;;19.12;63.97;101477.72;4975407;28;19918;-73
2023/06/12 01:22:41;;;;;;;;;;;;;;;19.09;62.66;101475.31;4969283;28;19921;-73
2023/06/12 01:25:19;;;;;;;;;;;;;;;19.07;63.27;101476.50;4966866;28;19921;-73
2023/06/12 01:27:59;;;;;;;;;;;;;;;19.02;64.68;101477.81;4966332;28;19922;-73
2023/06/12 01:30:32;;;;;;;;;;;;;;;18.93;63.76;101477.91;4960085;28;19933;-73
2023/06/12 01:32:59;;;;;;;;;;;;;;;18.80;64.44;101478.31;4967210;28;20045;-74
2023/06/12 01:35:24;;;;;;;;;;;;;;;18.70;64.71;101481.09;4968762;28;19930;-73
2023/06/12 01:38:04;;;;;;;;;;;;;;;18.73;65.73;101480.78;4969805;28;20004;-73
2023/06/12 01:40:30;;;;;;;;;;;;;;;18.73;64.29;101488.94;4969204;28;19922;-73
2023/06/12 01:42:55;;;;;;;;;;;;;;;18.76;65.44;101482.34;4967133;28;20355;-73
2023/06/12 01:45:20;;;;;;;;;;;;;;;18.73;66.12;101483.50;4983350;28;19988;-74
2023/06/12 01:47:45;;;;;;;;;;;;;;;18.65;65.03;101484.31;4971649;28;19929;-73
2023/06/12 01:50:13;;;;;;;;;;;;;;;18.62;66.51;101490.03;4967004;28;19996;-73
2023/06/12 01:52:38;;;;;;;;;;;;;;;18.60;66.15;101492.06;4969114;28;19922;-73
2023/06/12 01:55:04;;;;;;;;;;;;;;;18.58;66.15;101492.25;4970432;28;19936;-73
2023/06/12 01:57:30;;;;;;;;;;;;;;;18.56;66.35;101491.53;4969321;28;19922;-73
2023/06/12 01:59:55;;;;;;;;;;;;;;;18.57;67.26;101490.53;4971245;28;19922;-73
2023/06/12 02:02:20;;;;;;;;;;;;;;;18.55;66.87;101489.81;4968742;28;19938;-74
2023/06/12 02:04:46;;;;;;;;;;;;;;;18.51;67.89;101491.16;4986284;28;19925;-74
2023/06/12 02:07:11;;;;;;;;;;;;;;;18.50;69.29;101494.03;4966653;28;20303;-73
2023/06/12 02:09:36;;;;;;;;;;;;;;;18.44;67.49;101492.78;4969628;28;20536;-74
2023/06/12 02:12:02;;;;;;;;;;;;;;;18.41;69.35;101493.94;4968897;28;19922;-73
2023/06/12 02:14:27;;;;;;;;;;;;;;;18.35;68.38;101489.13;4972451;28;19928;-74
2023/06/12 02:16:55;;;;;;;;;;;;;;;17.98;70.04;101447.50;4956965;28;19929;-73
2023/06/12 02:19:25;;;;;;;;;;;;;;;18.20;69.70;101493.41;4968525;28;20036;-73
2023/06/12 02:21:51;;;;;;;;;;;;;;;18.14;70.47;101489.44;4965610;28;20052;-73
2023/06/12 02:24:16;;;;;;;;;;;;;;;18.10;70.76;101485.31;4969910;28;20106;-73
2023/06/12 02:26:41;;;;;;;;;;;;;;;18.03;72.13;101486.94;4971937;28;20017;-73
2023/06/12 02:29:07;;;;;;;;;;;;;;;17.98;71.74;101490.97;4973071;28;19966;-74
2023/06/12 02:31:33;;;;;;;;;;;;;;;17.89;72.37;101485.56;4972796;28;19989;-74
2023/06/12 02:33:58;;;;;;;;;;;;;;;17.75;73.30;101485.03;4968587;28;20336;-74
2023/06/12 02:36:23;;;;;;;;;;;;;;;17.67;75.48;101488.53;4972233;28;20016;-73
2023/06/12 02:38:48;;;;;;;;;;;;;;;17.57;75.63;101482.31;4973998;28;19928;-73
2023/06/12 02:41:13;;;;;;;;;;;;;;;17.46;77.69;101487.91;4979266;28;19917;-74
2023/06/12 02:43:39;;;;;;;;;;;;;;;17.30;80.85;101483.97;4973199;28;19922;-74
2023/06/12 02:46:04;;;;;;;;;;;;;;;17.16;83.52;101484.44;4974078;28;19929;-74
2023/06/12 02:48:29;;;;;;;;;;;;;;;17.02;85.25;101481.19;4973922;28;19922;-73
2023/06/12 02:50:54;;;;;;;;;;;;;;;16.93;87.64;101474.78;4972074;28;19926;-73
2023/06/12 02:53:20;;;;;;;;;;;;;;;16.82;88.26;101487.63;4972828;28;19922;-73
2023/06/12 02:55:45;;;;;;;;;;;;;;;16.70;89.82;101482.34;4973952;28;19965;-73
2023/06/12 02:58:10;;;;;;;;;;;;;;;16.63;91.92;101482.09;4974372;28;20494;-74
2023/06/12 03:00:35;;;;;;;;;;;;;;;16.55;93.43;101481.94;4976038;28;20191;-74
2023/06/12 03:03:02;;;;;;;;;;;;;;;16.47;94.40;101484.50;4970744;28;19917;-73
2023/06/12 03:05:27;;;;;;;;;;;;;;;16.41;95.38;101487.81;4978480;28;19961;-74
2023/06/12 03:07:53;;;;;;;;;;;;;;;16.37;96.61;101486.38;4975851;28;20356;-73
2023/06/12 03:10:18;;;;;;;;;;;;;;;16.33;96.66;101488.47;4979164;28;19948;-73
2023/06/12 03:12:43;;;;;;;;;;;;;;;16.23;97.64;101485.78;4974091;28;19922;-73
2023/06/12 03:15:09;;;;;;;;;;;;;;;16.12;97.36;101489.47;4975114;28;19965;-73
2023/06/12 03:17:35;;;;;;;;;;;;;;;16.02;100.00;101483.19;4975230;28;20419;-73
2023/06/12 03:20:00;;;;;;;;;;;;;;;15.94;100.00;101488.44;4976588;28;20522;-73
2023/06/12 03:22:25;;;;;;;;;;;;;;;15.89;100.00;101489.72;4957569;28;20538;-73
2023/06/12 03:24:53;;;;;;;;;;;;;;;15.84;99.86;101481.09;4991608;28;19922;-73
2023/06/12 03:27:18;;;;;;;;;;;;;;;15.81;99.94;101494.06;4976224;28;19930;-73
2023/06/12 03:29:45;;;;;;;;;;;;;;;15.77;99.24;101484.50;4973984;28;19922;-73
2023/06/12 03:32:10;;;;;;;;;;;;;;;15.68;99.90;101489.75;4975232;28;20284;-73
2023/06/12 03:34:36;;;;;;;;;;;;;;;15.68;100.00;101494.31;4974655;28;19921;-73
2023/06/12 03:37:01;;;;;;;;;;;;;;;15.67;100.00;101498.03;4970535;28;19957;-73
2023/06/12 03:39:26;;;;;;;;;;;;;;;15.64;100.00;101487.47;4971805;28;19932;-73
2023/06/12 03:41:53;;;;;;;;;;;;;;;15.63;100.00;101488.47;4968519;28;20438;-73
2023/06/12 03:44:18;;;;;;;;;;;;;;;15.58;100.00;101494.28;4967480;28;19922;-73
2023/06/12 03:46:43;;;;;;;;;;;;;;;15.57;100.00;101498.00;4968467;28;19959;-73
2023/06/12 03:49:08;;;;;;;;;;;;;;;15.58;100.00;101495.13;4971375;28;19929;-73
2023/06/12 03:51:35;;;;;;;;;;;;;;;15.58;100.00;101499.69;4984744;28;19926;-73
2023/06/12 03:54:00;;;;;;;;;;;;;;;15.56;100.00;101499.81;4960344;28;20080;-73
2023/06/12 03:56:26;;;;;;;;;;;;;;;15.56;100.00;101501.69;4966803;28;19921;-73
2023/06/12 03:58:51;;;;;;;;;;;;;;;15.45;100.00;101500.78;4969090;28;19988;-73
2023/06/12 04:01:16;;;;;;;;;;;;;;;15.37;100.00;101503.28;4970550;28;19921;-73
2023/06/12 04:03:44;;;;;;;;;;;;;;;15.36;100.00;101498.88;4962813;28;20007;-73
2023/06/12 04:06:09;;;;;;;;;;;;;;;15.38;100.00;101506.88;4969216;28;19925;-73
2023/06/12 04:08:37;;;;;;;;;;;;;;;15.43;100.00;101512.75;4971301;28;19925;-73
2023/06/12 04:11:03;;;;;;;;;;;;;;;15.44;100.00;101509.88;4969459;28;19961;-73
2023/06/12 04:13:28;;;;;;;;;;;;;;;15.41;100.00;101506.59;4967477;28;20037;-73
2023/06/12 04:15:55;;;;;;;;;;;;;;;15.39;100.00;101511.28;4971429;28;19984;-73
2023/06/12 04:18:21;;;;;;;;;;;;;;;15.40;100.00;101518.41;4968381;28;20086;-73
2023/06/12 04:20:46;;;;;;;;;;;;;;;15.41;100.00;101514.72;4966262;28;20487;-73
2023/06/12 04:23:11;;;;;;;;;;;;;;;15.43;100.00;101515.44;4968482;28;20420;-73
2023/06/12 04:25:37;;;;;;;;;;;;;;;15.47;100.00;101518.72;4980751;28;19938;-72
2023/06/12 04:28:03;;;;;;;;;;;;;;;15.38;100.00;101506.88;4964611;28;19964;-73
2023/06/12 04:30:31;;;;;;;;;;;;;;;15.54;100.00;101522.63;4962774;28;19980;-73
2023/06/12 04:32:56;;;;;;;;;;;;;;;15.62;100.00;101514.69;4968091;28;19964;-72
2023/06/12 04:35:22;;;;;;;;;;;;;;;15.71;100.00;101521.13;4967163;28;19921;-73
2023/06/12 04:37:48;;;;;;;;;;;;;;;15.76;100.00;101513.41;4969225;28;19932;-73
2023/06/12 04:40:14;;;;;;;;;;;;;;;15.83;100.00;101525.44;4978479;28;19922;-73
2023/06/12 04:42:41;;;;;;;;;;;;;;;15.96;100.00;101521.66;4954319;28;19925;-73
2023/06/12 04:45:08;;;;;;;;;;;;;;;15.87;100.00;101498.97;4968207;28;19964;-73
2023/06/12 04:47:36;;;;;;;;;;;;;;;16.12;100.00;101519.25;4981262;28;20008;-73
2023/06/12 04:50:01;;;;;;;;;;;;;;;16.23;100.00;101525.56;4971957;28;19972;-73
2023/06/12 04:52:27;;;;;;;;;;;;;;;16.32;100.00;101517.44;4975812;28;20016;-73
2023/06/12 04:54:52;;;;;;;;;;;;;;;16.45;100.00;101519.00;4971801;28;20325;-73
2023/06/12 04:57:18;;;;;;;;;;;;;;;16.59;100.00;101523.16;4985305;28;19979;-73
2023/06/12 04:59:45;;;;;;;;;;;;;;;16.73;100.00;101519.16;4973522;28;19996;-73
2023/06/12 05:02:10;;;;;;;;;;;;;;;16.90;100.00;101518.44;4969313;28;19922;-73
2023/06/12 05:04:36;;;;;;;;;;;;;;;17.10;100.00;101521.16;4973262;28;19922;-73
2023/06/12 05:07:03;;;;;;;;;;;;;;;17.28;100.00;101523.09;4976354;28;19926;-73
2023/06/12 05:09:29;;;;;;;;;;;;;;;17.39;100.00;101523.78;4978310;28;19922;-72
2023/06/12 05:11:54;;;;;;;;;;;;;;;17.54;100.00;101528.75;4974841;28;20412;-72
2023/06/12 05:14:19;;;;;;;;;;;;;;;17.67;100.00;101526.53;4975136;28;19921;-73
2023/06/12 05:16:46;;;;;;;;;;;;;;;17.81;100.00;101522.47;4975237;28;20277;-73
2023/06/12 05:19:12;;;;;;;;;;;;;;;17.91;100.00;101533.28;4978924;28;19922;-73
2023/06/12 05:21:38;;;;;;;;;;;;;;;18.04;98.91;101524.81;4978904;28;20372;-73
2023/06/12 05:24:04;;;;;;;;;;;;;;;18.25;95.72;101538.13;4972828;28;19918;-73
2023/06/12 05:26:29;;;;;;;;;;;;;;;18.46;92.71;101525.25;4978073;28;19921;-73
2023/06/12 05:28:54;;;;;;;;;;;;;;;18.62;84.78;101528.13;4975592;28;19921;-72
2023/06/12 05:31:19;;;;;;;;;;;;;;;18.83;86.13;101530.53;4960406;28;19973;-72
2023/06/12 05:33:44;;;;;;;;;;;;;;;18.99;84.18;101520.81;4990107;28;19922;-72
2023/06/12 05:36:10;;;;;;;;;;;;;;;19.17;81.56;101518.91;4978503;28;20302;-72
2023/06/12 05:38:35;;;;;;;;;;;;;;;19.31;75.65;101513.88;4976792;28;19969;-72
2023/06/12 05:41:00;;;;;;;;;;;;;;;19.48;71.39;101518.38;4970397;28;20035;-72
2023/06/12 05:43:25;;;;;;;;;;;;;;;19.64;70.41;101520.34;4974083;28;19922;-73
2023/06/12 05:45:50;;;;;;;;;;;;;;;19.81;72.09;101517.72;4974588;28;19921;-74
2023/06/12 05:48:18;;;;;;;;;;;;;;;19.92;70.01;101520.16;4977308;28;19960;-73
2023/06/12 05:50:43;;;;;;;;;;;;;;;20.04;65.29;101526.16;4971624;28;19929;-73
2023/06/12 05:53:08;;;;;;;;;;;;;;;20.22;69.55;101517.84;4973978;28;20443;-72
2023/06/12 05:55:34;;;;;;;;;;;;;;;20.35;65.17;101514.66;4977063;28;20312;-72
2023/06/12 05:57:59;;;;;;;;;;;;;;;20.46;63.88;101515.34;4975224;28;19926;-71
2023/06/12 06:00:24;;;;;;;;;;;;;;;20.59;66.15;101517.59;4971960;28;20256;-72
2023/06/12 06:02:50;;;;;;;;;;;;;;;20.76;61.86;101521.19;4972623;28;19945;-72
2023/06/12 06:05:16;;;;;;;;;;;;;;;20.88;64.91;101524.44;4983791;28;19922;-72
2023/06/12 06:07:41;;;;;;;;;;;;;;;21.00;60.26;101520.31;4976170;28;19928;-74
2023/06/12 06:10:07;;;;;;;;;;;;;;;21.12;60.97;101509.91;4976611;28;19965;-72
2023/06/12 06:12:32;;;;;;;;;;;;;;;21.18;60.03;101514.69;4974125;28;20360;-71
2023/06/12 06:14:57;;;;;;;;;;;;;;;21.27;58.44;101513.66;4974939;28;19925;-72
2023/06/12 06:17:23;;;;;;;;;;;;;;;21.42;59.16;101518.38;4980952;28;19922;-73
2023/06/12 06:19:49;;;;;;;;;;;;;;;21.52;59.62;101512.72;4981815;28;19951;-72
2023/06/12 06:22:17;;;;;;;;;;;;;;;21.62;59.01;101516.13;4959709;28;20008;-72
2023/06/12 06:24:42;;;;;;;;;;;;;;;21.77;59.04;101521.72;4977524;28;19926;-74
2023/06/12 06:27:08;;;;;;;;;;;;;;;21.85;58.62;101521.66;4981909;28;20200;-73
2023/06/12 06:29:33;;;;;;;;;;;;;;;21.92;58.66;101524.53;4990876;28;20384;-73
2023/06/12 06:31:58;;;;;;;;;;;;;;;22.02;55.89;101527.88;4971106;28;19980;-72
2023/06/12 06:34:25;;;;;;;;;;;;;;;22.07;54.88;101530.13;4972876;28;20603;-72
2023/06/12 06:36:50;;;;;;;;;;;;;;;22.12;54.89;101529.56;4976639;28;20105;-73
2023/06/12 06:39:15;;;;;;;;;;;;;;;22.20;52.67;101523.19;4977410;28;20509;-69
2023/06/12 06:41:41;;;;;;;;;;;;;;;22.31;50.85;101528.25;4971133;28;19921;-74
2023/06/12 06:44:06;;;;;;;;;;;;;;;22.46;54.91;101525.63;4973094;28;19979;-71
2023/06/12 06:46:31;;;;;;;;;;;;;;;22.50;52.03;101517.91;4975135;28;20132;-72
2023/06/12 06:48:56;;;;;;;;;;;;;;;22.55;52.17;101526.41;4974061;28;19929;-72
2023/06/12 06:51:21;;;;;;;;;;;;;;;22.68;52.58;101525.81;4973154;28;19926;-73
2023/06/12 06:53:47;;;;;;;;;;;;;;;22.81;52.37;101523.28;4976480;28;19922;-72
2023/06/12 06:56:12;;;;;;;;;;;;;;;22.96;54.44;101527.97;4964746;28;19926;-72
2023/06/12 06:58:37;;;;;;;;;;;;;;;23.06;52.85;101515.72;4977486;28;19926;-72
2023/06/12 07:01:03;;;;;;;;;;;;;;;23.18;54.20;101512.50;4972254;28;19964;-74
2023/06/12 07:03:28;;;;;;;;;;;;;;;23.23;55.35;101495.56;4989020;28;20040;-74
2023/06/12 07:05:53;;;;;;;;;;;;;;;23.43;53.25;101513.13;4972711;28;20203;-73
2023/06/12 07:08:18;;;;;;;;;;;;;;;23.41;51.52;101512.47;4971347;28;19925;-72
2023/06/12 07:10:44;;;;;;;;;;;;;;;23.39;53.80;101509.06;4986953;28;19925;-72
2023/06/12 07:13:09;;;;;;;;;;;;;;;23.44;51.26;101524.94;4969301;28;19921;-73
2023/06/12 07:15:34;;;;;;;;;;;;;;;23.54;50.84;101516.44;4977764;28;19964;-73
2023/06/12 07:17:59;;;;;;;;;;;;;;;23.65;53.90;101514.06;4974105;28;20044;-72
2023/06/12 07:20:24;;;;;;;;;;;;;;;23.79;53.62;101509.63;4972077;28;19928;-73
2023/06/12 07:22:50;;;;;;;;;;;;;;;23.74;49.87;101505.72;4976040;28;19922;-74
2023/06/12 07:25:15;;;;;;;;;;;;;;;23.83;51.33;101512.81;4978386;28;19929;-73
2023/06/12 07:27:41;;;;;;;;;;;;;;;24.02;53.32;101516.03;4974081;28;19928;-72
2023/06/12 07:30:06;;;;;;;;;;;;;;;24.15;51.67;101520.81;4974067;28;19941;-72
2023/06/12 07:32:31;;;;;;;;;;;;;;;24.18;50.41;101523.16;4974894;28;19926;-72
2023/06/12 07:34:56;;;;;;;;;;;;;;;24.38;50.24;101513.25;4977051;28;19929;-70
2023/06/12 07:37:22;;;;;;;;;;;;;;;24.52;52.26;101516.16;4972788;28;20028;-73
2023/06/12 07:39:47;;;;;;;;;;;;;;;24.49;49.59;101511.91;4975561;28;19926;-74
2023/06/12 07:42:13;;;;;;;;;;;;;;;24.40;51.34;101508.41;4956736;28;20273;-71
2023/06/12 07:44:40;;;;;;;;;;;;;;;24.27;53.71;101511.03;4979772;28;19917;-73
2023/06/12 07:47:06;;;;;;;;;;;;;;;24.26;50.61;101512.91;4973855;28;19921;-74
2023/06/12 07:49:31;;;;;;;;;;;;;;;24.26;49.93;101509.34;4976834;28;19929;-73
2023/06/12 07:51:56;;;;;;;;;;;;;;;24.42;50.38;101502.75;4974354;28;20341;-73
2023/06/12 07:54:21;;;;;;;;;;;;;;;24.63;51.52;101501.88;4974531;28;20280;-74
2023/06/12 07:56:46;;;;;;;;;;;;;;;24.83;52.59;101504.00;4977923;28;19926;-73
2023/06/12 07:59:12;;;;;;;;;;;;;;;24.97;52.96;101507.72;4976022;28;19965;-74
2023/06/12 08:01:37;;;;;;;;;;;;;;;25.14;51.91;101500.84;4975492;28;19971;-74
2023/06/12 08:04:05;;;;;;;;;;;;;;;25.33;51.38;101498.41;4969922;28;19921;-75
2023/06/12 08:06:33;;;;;;;;;;;;;;;25.40;51.75;101510.31;4983810;28;19921;-74
2023/06/12 08:08:58;;;;;;;;;;;;;;;25.47;51.12;101506.78;4974892;28;20713;-71
2023/06/12 08:11:23;;;;;;;;;;;;;;;25.28;48.33;101499.03;4976143;28;19930;-73
2023/06/12 08:13:49;;;;;;;;;;;;;;;25.33;47.12;101503.91;4967527;28;19940;-74
2023/06/12 08:16:14;;;;;;;;;;;;;;;25.41;47.27;101505.69;4980657;28;19917;-74
2023/06/12 08:18:40;;;;;;;;;;;;;;;25.59;50.93;101496.91;4969998;28;20275;-71
2023/06/12 08:21:05;;;;;;;;;;;;;;;25.74;51.79;101502.25;4973054;28;20060;-72
2023/06/12 08:23:31;;;;;;;;;;;;;;;25.87;48.17;101496.84;4971028;28;19921;-74
2023/06/12 08:25:56;;;;;;;;;;;;;;;26.01;48.22;101499.63;4977097;28;19925;-74
2023/06/12 08:28:21;;;;;;;;;;;;;;;26.03;47.45;101506.63;4970741;28;19924;-71
2023/06/12 08:30:46;;;;;;;;;;;;;;;25.98;47.73;101500.88;4973543;28;19929;-74
2023/06/12 08:33:15;;;;;;;;;;;;;;;26.06;46.60;101502.59;4976660;28;20534;-76
2023/06/12 08:35:41;;;;;;;;;;;;;;;26.04;45.17;101501.97;4974392;28;19921;-72
2023/06/12 08:38:06;;;;;;;;;;;;;;;26.25;47.20;101502.88;4973306;28;19953;-75
2023/06/12 08:40:32;;;;;;;;;;;;;;;26.30;44.34;101501.22;4977485;28;20008;-75
2023/06/12 08:42:57;;;;;;;;;;;;;;;26.07;44.99;101500.72;4976645;28;19922;-73
2023/06/12 08:45:23;;;;;;;;;;;;;;;26.21;45.88;101505.22;4976220;28;19944;-71
2023/06/12 08:47:48;;;;;;;;;;;;;;;26.28;45.43;101496.97;4982622;28;20411;-72
2023/06/12 08:50:16;;;;;;;;;;;;;;;26.42;46.34;101497.84;4974668;28;19925;-73
2023/06/12 08:52:41;;;;;;;;;;;;;;;26.29;46.95;101493.16;4975967;28;20335;-71
2023/06/12 08:55:12;;;;;;;;;;;;;;;26.54;44.75;101496.16;4981701;28;19976;-73
2023/06/12 08:57:38;;;;;;;;;;;;;;;26.54;43.41;101498.94;4977196;28;19968;-74
2023/06/12 09:00:06;;;;;;;;;;;;;;;26.61;43.09;101490.66;4992098;28;20617;-75
2023/06/12 09:02:35;;;;;;;;;;;;;;;26.78;44.00;101493.84;4974590;28;19936;-71
2023/06/12 09:05:02;;;;;;;;;;;;;;;26.83;46.43;101493.22;4980126;28;20234;-71
2023/06/12 09:07:27;;;;;;;;;;;;;;;26.92;41.97;101486.47;4979541;28;19929;-73
2023/06/12 09:09:52;;;;;;;;;;;;;;;26.92;43.14;101486.47;4977699;28;19926;-71
2023/06/12 09:12:18;;;;;;;;;;;;;;;27.02;42.39;101486.00;4978202;28;20320;-72
2023/06/12 09:14:44;;;;;;;;;;;;;;;26.92;42.27;101486.47;4977938;28;19921;-71
2023/06/12 09:17:10;;;;;;;;;;;;;;;27.16;42.98;101476.66;4978953;28;20258;-73
2023/06/12 09:19:36;;;;;;;;;;;;;;;27.33;44.92;101473.44;4955822;28;20358;-74
2023/06/12 09:22:02;;;;;;;;;;;;;;;27.50;42.57;101471.94;4972934;28;19922;-75
2023/06/12 09:24:27;;;;;;;;;;;;;;;27.57;45.45;101473.81;4979104;28;19917;-74
2023/06/12 09:26:54;;;;;;;;;;;;;;;27.59;42.37;101468.94;4971565;28;20261;-74
2023/06/12 09:29:21;;;;;;;;;;;;;;;27.62;42.18;101476.78;4983517;28;20294;-74
2023/06/12 09:31:50;;;;;;;;;;;;;;;27.66;46.76;101473.34;4983184;28;20208;-73
2023/06/12 09:34:15;;;;;;;;;;;;;;;27.77;43.09;101476.50;4979350;28;19921;-71
2023/06/12 09:36:42;;;;;;;;;;;;;;;27.74;41.03;101463.16;4980514;28;21781;-71
2023/06/12 09:39:08;;;;;;;;;;;;;;;27.89;41.98;101468.38;4975647;28;20015;-72
2023/06/12 09:41:34;;;;;;;;;;;;;;;27.94;43.04;101466.66;4974490;28;19921;-73
2023/06/12 09:44:02;;;;;;;;;;;;;;;28.13;41.13;101461.25;4976138;28;20390;-72
2023/06/12 09:46:28;;;;;;;;;;;;;;;28.03;40.79;101461.72;4978613;28;19922;-75
2023/06/12 09:48:59;;;;;;;;;;;;;;;28.23;40.19;101463.53;4973281;28;20273;-72
2023/06/12 09:51:24;;;;;;;;;;;;;;;28.38;38.27;101464.06;4972795;28;19980;-72
2023/06/12 09:53:49;;;;;;;;;;;;;;;28.45;38.47;101469.53;4977288;28;20372;-73
2023/06/12 09:56:15;;;;;;;;;;;;;;;28.44;40.03;101467.84;4979513;28;19965;-74
2023/06/12 09:58:40;;;;;;;;;;;;;;;28.26;37.75;101463.94;4972798;28;19929;-75
2023/06/12 10:01:06;;;;;;;;;;;;;;;28.39;41.71;101463.00;4983062;28;19953;-75
2023/06/12 10:03:36;;;;;;;;;;;;;;;28.55;38.97;101469.03;4969747;28;20040;-72
2023/06/12 10:06:02;;;;;;;;;;;;;;;28.32;42.42;101466.88;4976779;28;19922;-72
2023/06/12 10:08:30;;;;;;;;;;;;;;;28.49;41.03;101465.25;4992305;28;19922;-73
2023/06/12 10:10:55;;;;;;;;;;;;;;;28.55;36.99;101469.03;4981588;28;19930;-71
2023/06/12 10:13:20;;;;;;;;;;;;;;;28.88;42.89;101459.63;4971394;28;20443;-72
2023/06/12 10:15:45;;;;;;;;;;;;;;;29.12;42.27;101462.59;4976339;28;20321;-72
2023/06/12 10:18:11;;;;;;;;;;;;;;;29.09;37.00;101466.66;4975240;28;20419;-72
2023/06/12 10:20:36;;;;;;;;;;;;;;;29.12;41.02;101455.16;4978512;28;20944;-70
2023/06/12 10:23:02;;;;;;;;;;;;;;;29.33;36.67;101453.81;4976371;28;19922;-73
2023/06/12 10:25:27;;;;;;;;;;;;;;;29.63;35.24;101458.59;4979631;28;19945;-72
2023/06/12 10:27:53;;;;;;;;;;;;;;;29.59;36.75;101457.38;4968773;28;19999;-73
2023/06/12 10:30:18;;;;;;;;;;;;;;;29.52;36.13;101459.41;4961222;28;19980;-73
2023/06/12 10:32:44;;;;;;;;;;;;;;;29.68;36.14;101451.53;4972914;28;20424;-73
2023/06/12 10:35:10;;;;;;;;;;;;;;;29.73;36.11;101449.75;4977248;28;19926;-71
2023/06/12 10:37:39;;;;;;;;;;;;;;;29.87;35.58;101457.88;4976232;28;19926;-71
2023/06/12 10:40:17;;;;;;;;;;;;;;;30.09;36.77;101447.16;4976942;28;19968;-72
2023/06/12 10:42:44;;;;;;;;;;;;;;;30.05;37.03;101446.78;4982740;28;19922;-73
2023/06/12 10:45:12;;;;;;;;;;;;;;;30.11;35.77;101444.16;4988090;28;19926;-75
2023/06/12 10:47:37;;;;;;;;;;;;;;;30.04;40.38;101441.50;4974457;28;19926;-75
2023/06/12 10:50:03;;;;;;;;;;;;;;;30.46;39.35;101441.47;4958712;28;19948;-75
2023/06/12 10:52:28;;;;;;;;;;;;;;;30.81;38.65;101439.81;4969398;28;19926;-73
2023/06/12 10:55:12;;;;;;;;;;;;;;;31.01;35.75;101430.28;4981033;28;19949;-74
2023/06/12 10:57:37;;;;;;;;;;;;;;;30.97;35.68;101429.94;4975979;28;20369;-73
2023/06/12 11:00:05;;;;;;;;;;;;;;;31.21;34.57;101435.47;4976835;28;19956;-74
2023/06/12 11:02:30;;;;;;;;;;;;;;;31.59;37.28;101438.75;4977484;28;19996;-74
2023/06/12 11:04:56;;;;;;;;;;;;;;;31.64;37.56;101419.44;4993090;28;20436;-72
2023/06/12 11:07:21;;;;;;;;;;;;;;;31.43;34.93;101421.78;4960440;28;19956;-72
2023/06/12 11:09:46;;;;;;;;;;;;;;;31.15;33.34;101419.81;4976133;28;20396;-76
2023/06/12 11:12:11;;;;;;;;;;;;;;;31.59;35.58;101414.63;4971203;28;20390;-72
2023/06/12 11:14:37;;;;;;;;;;;;;;;31.74;35.58;101421.59;4975846;28;20008;-72
2023/06/12 11:17:02;;;;;;;;;;;;;;;32.06;35.23;101421.88;4965097;28;20001;-73
2023/06/12 11:19:28;;;;;;;;;;;;;;;32.03;34.26;101413.22;4976718;28;20010;-71
2023/06/12 11:21:56;;;;;;;;;;;;;;;32.02;34.88;101415.19;4974487;28;20368;-72
2023/06/12 11:24:22;;;;;;;;;;;;;;;32.00;32.41;101422.91;4974496;28;19918;-70
2023/06/12 11:26:50;;;;;;;;;;;;;;;32.14;35.02;101423.44;4976747;28;19921;-71
2023/06/12 11:29:16;;;;;;;;;;;;;;;31.19;35.33;101419.09;4970685;28;20117;-72
2023/06/12 11:31:44;;;;;;;;;;;;;;;31.41;33.54;101415.66;4975258;28;19946;-71
2023/06/12 11:34:09;;;;;;;;;;;;;;;31.94;35.53;101418.34;4968095;28;19922;-71
2023/06/12 11:36:34;;;;;;;;;;;;;;;32.31;32.71;101412.38;4976572;28;19968;-71
2023/06/12 11:39:00;;;;;;;;;;;;;;;32.23;33.62;101410.81;4974560;28;20005;-71
2023/06/12 11:41:26;;;;;;;;;;;;;;;32.16;35.22;101405.41;4972955;28;20262;-73
2023/06/12 11:43:51;;;;;;;;;;;;;;;31.97;34.69;101398.44;4981637;28;19922;-73
2023/06/12 11:46:17;;;;;;;;;;;;;;;32.37;35.26;101402.19;4973593;28;20254;-75
2023/06/12 11:48:42;;;;;;;;;;;;;;;32.55;32.33;101410.25;4971173;28;19929;-72
2023/06/12 11:51:08;;;;;;;;;;;;;;;32.95;31.82;101396.41;4972462;28;20687;-71
2023/06/12 11:53:33;;;;;;;;;;;;;;;33.43;31.20;101405.09;4967350;28;19961;-72
2023/06/12 11:56:00;;;;;;;;;;;;;;;32.50;31.72;101401.00;4976999;28;20000;-75
2023/06/12 11:58:35;;;;;;;;;;;;;;;32.26;33.61;101395.59;4975247;28;20459;-74
2023/06/12 12:01:13;;;;;;;;;;;;;;;31.61;35.11;101392.16;4969336;28;20270;-72
2023/06/12 12:03:46;;;;;;;;;;;;;;;32.31;33.29;101392.94;4970262;28;19929;-72
2023/06/12 12:06:11;;;;;;;;;;;;;;;33.21;32.70;101392.00;4974433;28;19922;-73
2023/06/12 12:08:36;;;;;;;;;;;;;;;33.60;30.07;101396.66;4972999;28;19963;-71
2023/06/12 12:11:22;;;;;;;;;;;;;;;33.98;29.66;101383.72;4974724;28;21199;-75
2023/06/12 12:13:58;;;;;;;;;;;;;;;34.28;32.32;101393.44;4971875;28;20016;-74
2023/06/12 12:16:24;;;;;;;;;;;;;;;34.52;30.73;101391.13;4979058;28;19921;-72
2023/06/12 12:18:49;;;;;;;;;;;;;;;34.57;29.33;101393.09;4988229;28;20299;-74
2023/06/12 12:21:18;;;;;;;;;;;;;;;34.20;29.30;101391.94;4970443;28;19930;-75
2023/06/12 12:23:43;;;;;;;;;;;;;;;32.89;32.79;101382.41;4971600;28;20359;-73
2023/06/12 12:26:15;;;;;;;;;;;;;;;33.00;32.05;101383.41;4976106;28;20406;-75
2023/06/12 12:28:41;;;;;;;;;;;;;;;33.05;34.63;101390.97;4972806;28;19932;-71
2023/06/12 12:31:07;;;;;;;;;;;;;;;33.93;28.93;101389.22;4975519;28;19932;-71